createdAt,value
2023-05-02T00:02:18.712Z,53.57
2023-05-02T00:04:46.995Z,44.90
2023-05-02T00:07:15.429Z,48.07
2023-05-02T00:09:43.726Z,40.17
2023-05-02T00:12:11.886Z,37.87
2023-05-02T00:14:39.989Z,38.20
2023-05-02T00:17:08.289Z,36.60
2023-05-02T00:19:40.973Z,30.27
2023-05-02T00:22:09.226Z,31.33
2023-05-02T00:24:37.466Z,32.60
2023-05-02T00:27:06.220Z,28.07
2023-05-02T00:29:34.461Z,33.17
2023-05-02T00:32:02.905Z,30.50
2023-05-02T00:34:31.734Z,28.90
2023-05-02T00:37:01.466Z,28.60
2023-05-02T00:39:29.667Z,25.73
2023-05-02T00:41:58.682Z,21.90
2023-05-02T00:44:26.971Z,22.33
2023-05-02T00:46:55.876Z,21.57
2023-05-02T00:49:24.822Z,25.50
2023-05-02T00:51:54.351Z,18.53
2023-05-02T00:54:24.136Z,21.23
2023-05-02T00:56:52.424Z,22.20
2023-05-02T00:59:21.234Z,18.77
2023-05-02T01:02:06.675Z,24.10
2023-05-02T01:04:51.617Z,19.07
2023-05-02T01:07:37.042Z,24.50
2023-05-02T01:10:20.563Z,19.80
2023-05-02T01:12:57.834Z,20.63
2023-05-02T01:15:26.722Z,16.47
2023-05-02T01:17:57.269Z,22.67
2023-05-02T01:20:30.244Z,20.67
2023-05-02T01:23:11.519Z,21.30
2023-05-02T01:26:02.352Z,19.57
2023-05-02T01:28:48.243Z,21.50
2023-05-02T01:31:17.776Z,27.03
2023-05-02T01:33:48.999Z,24.90
2023-05-02T01:36:18.509Z,22.70
2023-05-02T01:38:47.892Z,24.40
2023-05-02T01:41:17.177Z,23.53
2023-05-02T01:43:48.196Z,24.27
2023-05-02T01:46:16.792Z,24.97
2023-05-02T01:48:49.619Z,29.13
2023-05-02T01:51:19.962Z,24.07
2023-05-02T01:53:50.933Z,27.03
2023-05-02T01:56:21.444Z,26.40
2023-05-02T01:58:54.134Z,24.67
2023-05-02T02:01:24.939Z,23.43
2023-05-02T02:03:55.880Z,22.77
2023-05-02T02:06:25.330Z,20.93
2023-05-02T02:08:53.587Z,23.17
2023-05-02T02:11:28.538Z,16.07
2023-05-02T02:14:06.085Z,18.87
2023-05-02T02:16:39.101Z,15.77
2023-05-02T02:19:11.455Z,24.10
2023-05-02T02:21:41.591Z,22.40
2023-05-02T02:24:11.122Z,15.33
2023-05-02T02:26:39.491Z,15.20
2023-05-02T02:29:10.732Z,19.87
2023-05-02T02:31:39.872Z,14.07
2023-05-02T02:34:08.704Z,12.63
2023-05-02T02:36:46.129Z,10.40
2023-05-02T02:39:29.470Z,12.67
2023-05-02T02:42:15.298Z,9.70
2023-05-02T02:44:56.221Z,12.10
2023-05-02T02:47:32.835Z,12.80
2023-05-02T02:50:17.740Z,15.40
2023-05-02T02:52:56.669Z,13.43
2023-05-02T02:55:38.566Z,15.83
2023-05-02T02:58:21.182Z,17.03
2023-05-02T03:00:51.781Z,13.77
2023-05-02T03:03:25.045Z,16.63
2023-05-02T03:05:53.350Z,18.63
2023-05-02T03:08:21.962Z,19.37
2023-05-02T03:10:50.222Z,18.83
2023-05-02T03:13:18.817Z,13.87
2023-05-02T03:16:35.176Z,28.07
2023-05-02T03:19:05.006Z,19.67
2023-05-02T03:21:34.505Z,14.93
2023-05-02T03:24:11.021Z,22.43
2023-05-02T03:26:39.358Z,16.23
2023-05-02T03:29:10.831Z,10.93
2023-05-02T03:31:44.037Z,16.07
2023-05-02T03:34:13.710Z,18.60
2023-05-02T03:36:43.089Z,9.57
2023-05-02T03:39:12.319Z,12.17
2023-05-02T03:41:42.401Z,9.20
2023-05-02T03:44:13.488Z,9.23
2023-05-02T03:46:43.405Z,8.47
2023-05-02T03:49:13.685Z,10.80
2023-05-02T03:51:44.688Z,11.07
2023-05-02T03:54:14.181Z,13.17
2023-05-02T03:56:45.052Z,7.13
2023-05-02T03:59:22.510Z,8.00
2023-05-02T04:01:52.743Z,8.93
2023-05-02T04:04:26.180Z,6.80
2023-05-02T04:06:56.264Z,5.33
2023-05-02T04:09:25.559Z,9.63
2023-05-02T04:12:20.074Z,8.50
2023-05-02T04:14:51.110Z,8.87
2023-05-02T04:17:22.067Z,8.30
2023-05-02T04:19:51.582Z,10.63
2023-05-02T04:22:22.006Z,5.23
2023-05-02T04:24:54.818Z,6.10
2023-05-02T04:27:23.830Z,8.93
2023-05-02T04:29:53.393Z,9.70
2023-05-02T04:32:23.372Z,9.40
2023-05-02T04:34:52.124Z,15.80
2023-05-02T04:37:21.789Z,10.63
2023-05-02T04:39:51.550Z,13.47
2023-05-02T04:42:24.303Z,10.77
2023-05-02T04:45:02.073Z,11.80
2023-05-02T04:47:31.800Z,10.60
2023-05-02T04:50:01.464Z,9.90
2023-05-02T04:52:31.079Z,12.23
2023-05-02T04:55:00.783Z,12.97
2023-05-02T04:57:29.630Z,10.53
2023-05-02T05:00:01.054Z,14.07
2023-05-02T05:02:31.544Z,14.87
2023-05-02T05:05:02.062Z,14.37
2023-05-02T05:07:30.533Z,17.27
2023-05-02T05:09:59.534Z,10.23
2023-05-02T05:12:31.673Z,10.93
2023-05-02T05:15:00.270Z,11.17
2023-05-02T05:17:31.444Z,13.33
2023-05-02T05:20:00.794Z,12.57
2023-05-02T05:22:29.212Z,17.50
2023-05-02T05:24:57.511Z,12.13
2023-05-02T05:27:30.380Z,9.50
2023-05-02T05:29:59.290Z,10.80
2023-05-02T05:32:29.061Z,10.47
2023-05-02T05:34:58.695Z,10.77
2023-05-02T05:37:28.836Z,11.90
2023-05-02T05:39:59.144Z,15.10
2023-05-02T05:42:27.558Z,12.40
2023-05-02T05:45:00.642Z,9.87
2023-05-02T05:47:29.257Z,8.97
2023-05-02T05:50:00.848Z,16.47
2023-05-02T05:52:31.381Z,13.97
2023-05-02T05:55:02.072Z,12.70
2023-05-02T05:57:31.080Z,8.10
2023-05-02T05:59:59.577Z,10.47
2023-05-02T06:02:28.007Z,14.40
2023-05-02T06:04:57.384Z,9.33
2023-05-02T06:07:28.496Z,10.23
2023-05-02T06:09:56.680Z,13.23
2023-05-02T06:12:24.892Z,11.13
2023-05-02T06:14:53.696Z,7.50
2023-05-02T06:17:22.795Z,8.83
2023-05-02T06:19:51.352Z,7.47
2023-05-02T06:22:19.611Z,11.53
2023-05-02T06:24:49.069Z,14.27
2023-05-02T06:27:17.589Z,12.80
2023-05-02T06:29:45.637Z,9.97
2023-05-02T06:32:13.837Z,5.90
2023-05-02T06:34:41.873Z,7.47
2023-05-02T06:37:10.189Z,9.90
2023-05-02T06:39:38.383Z,8.47
2023-05-02T06:42:07.918Z,9.20
2023-05-02T06:44:36.712Z,12.77
2023-05-02T06:47:06.342Z,13.33
2023-05-02T06:49:34.734Z,14.93
2023-05-02T06:52:02.838Z,8.33
2023-05-02T06:54:31.071Z,13.97
2023-05-02T06:57:00.449Z,10.23
2023-05-02T06:59:29.928Z,7.27
2023-05-02T07:01:58.070Z,9.20
2023-05-02T07:04:27.722Z,7.90
2023-05-02T07:06:56.021Z,5.30
2023-05-02T07:09:24.251Z,9.63
2023-05-02T07:11:52.325Z,9.47
2023-05-02T07:14:20.957Z,12.87
2023-05-02T07:16:54.391Z,7.87
2023-05-02T07:19:22.539Z,9.10
2023-05-02T07:21:50.681Z,6.40
2023-05-02T07:24:18.924Z,5.23
2023-05-02T07:26:47.120Z,5.50
2023-05-02T07:29:15.265Z,7.17
2023-05-02T07:31:43.628Z,6.70
2023-05-02T07:34:13.208Z,5.00
2023-05-02T07:36:41.403Z,7.47
2023-05-02T07:39:10.474Z,6.10
2023-05-02T07:41:38.695Z,7.67
2023-05-02T07:44:06.959Z,8.63
2023-05-02T07:46:35.307Z,7.07
2023-05-02T07:49:06.251Z,5.13
2023-05-02T07:51:35.793Z,4.67
2023-05-02T07:54:04.076Z,4.07
2023-05-02T07:56:32.798Z,4.20
2023-05-02T07:59:00.868Z,7.07
2023-05-02T08:01:30.045Z,7.90
2023-05-02T08:03:58.434Z,7.77
2023-05-02T08:06:26.821Z,3.67
2023-05-02T08:08:56.340Z,2.70
2023-05-02T08:11:25.512Z,8.70
2023-05-02T08:13:53.888Z,3.90
2023-05-02T08:16:22.982Z,5.00
2023-05-02T08:18:51.130Z,6.70
2023-05-02T08:21:19.313Z,5.60
2023-05-02T08:23:47.447Z,4.50
2023-05-02T08:26:19.230Z,4.63
2023-05-02T08:28:47.814Z,5.63
2023-05-02T08:31:18.850Z,4.97
2023-05-02T08:33:47.210Z,4.97
2023-05-02T08:36:17.387Z,7.07
2023-05-02T08:38:46.779Z,6.40
2023-05-02T08:41:19.100Z,5.00
2023-05-02T08:43:50.432Z,6.50
2023-05-02T08:46:19.169Z,6.17
2023-05-02T08:48:49.103Z,9.13
2023-05-02T08:53:48.116Z,5.60
2023-05-02T08:56:17.607Z,18.60
2023-05-02T08:58:45.965Z,4.27
2023-05-02T09:01:18.208Z,7.67
2023-05-02T09:03:48.371Z,7.03
2023-05-02T09:06:19.041Z,4.03
2023-05-02T09:08:49.954Z,13.90
2023-05-02T09:11:21.409Z,7.37
2023-05-02T09:13:51.029Z,4.90
2023-05-02T09:16:22.757Z,8.17
2023-05-02T09:18:52.364Z,7.10
2023-05-02T09:21:22.489Z,4.60
2023-05-02T09:23:53.120Z,5.57
2023-05-02T09:26:24.896Z,8.10
2023-05-02T09:28:54.484Z,7.13
2023-05-02T09:31:49.611Z,5.73
2023-05-02T09:34:18.279Z,4.53
2023-05-02T09:36:48.403Z,2.93
2023-05-02T09:39:18.865Z,7.77
2023-05-02T09:41:50.871Z,5.13
2023-05-02T09:44:20.851Z,4.97
2023-05-02T09:46:54.203Z,6.23
2023-05-02T09:49:41.931Z,4.57
2023-05-02T09:52:14.526Z,8.10
2023-05-02T09:54:43.085Z,6.17
2023-05-02T09:57:12.710Z,4.70
2023-05-02T09:59:41.829Z,7.90
2023-05-02T10:02:12.044Z,9.17
2023-05-02T10:04:41.918Z,5.23
2023-05-02T10:07:11.536Z,5.50
2023-05-02T10:09:45.899Z,4.23
2023-05-02T10:12:17.655Z,6.23
2023-05-02T10:14:51.542Z,5.90
2023-05-02T10:17:29.523Z,6.60
2023-05-02T10:20:02.140Z,8.40
2023-05-02T10:22:31.722Z,5.33
2023-05-02T10:25:02.189Z,6.57
2023-05-02T10:27:33.822Z,5.83
2023-05-02T10:30:04.352Z,8.37
2023-05-02T10:32:35.327Z,5.37
2023-05-02T10:35:06.629Z,10.43
2023-05-02T10:37:39.441Z,5.50
2023-05-02T10:40:12.416Z,4.20
2023-05-02T10:42:46.683Z,4.63
2023-05-02T10:45:33.339Z,4.23
2023-05-02T10:48:20.200Z,5.70
2023-05-02T10:50:51.272Z,6.63
2023-05-02T10:53:31.640Z,5.33
2023-05-02T10:56:22.282Z,4.80
2023-05-02T10:58:53.485Z,6.70
2023-05-02T11:01:36.979Z,8.70
2023-05-02T11:04:07.696Z,7.33
2023-05-02T11:06:37.362Z,5.47
2023-05-02T11:09:34.367Z,7.63
2023-05-02T11:12:04.889Z,12.13
2023-05-02T11:14:55.188Z,7.40
2023-05-02T11:17:23.428Z,9.00
2023-05-02T11:20:26.057Z,5.07
2023-05-02T11:22:56.463Z,10.07
2023-05-02T11:25:33.501Z,6.80
2023-05-02T11:28:02.711Z,5.60
2023-05-02T11:30:48.657Z,6.20
2023-05-02T11:33:21.973Z,4.93
2023-05-02T11:35:51.992Z,10.23
2023-05-02T11:38:23.738Z,6.87
2023-05-02T11:41:00.312Z,7.13
2023-05-02T11:43:32.851Z,7.97
2023-05-02T11:46:07.760Z,8.47
2023-05-02T11:48:46.126Z,10.33
2023-05-02T11:51:27.036Z,8.30
2023-05-02T11:53:59.040Z,7.63
2023-05-02T11:56:32.142Z,5.03
2023-05-02T11:59:06.694Z,5.80
2023-05-02T12:01:36.583Z,6.80
2023-05-02T12:04:12.050Z,6.57
2023-05-02T12:06:55.603Z,6.20
2023-05-02T12:09:24.798Z,7.93
2023-05-02T12:11:59.395Z,8.10
2023-05-02T12:14:35.968Z,7.90
2023-05-02T12:17:07.418Z,5.27
2023-05-02T12:19:37.944Z,7.30
2023-05-02T12:22:07.894Z,6.87
2023-05-02T12:24:43.570Z,6.30
2023-05-02T12:27:24.683Z,4.37
2023-05-02T12:29:54.154Z,9.93
2023-05-02T12:32:45.335Z,6.03
2023-05-02T12:35:30.598Z,6.00
2023-05-02T12:38:16.275Z,6.07
2023-05-02T12:40:57.667Z,6.40
2023-05-02T12:43:26.031Z,7.40
2023-05-02T12:46:13.876Z,4.87
2023-05-02T12:48:44.920Z,5.87
2023-05-02T12:51:28.539Z,5.33
2023-05-02T12:53:56.953Z,6.10
2023-05-02T12:56:27.700Z,4.73
2023-05-02T12:58:56.105Z,5.77
2023-05-02T13:01:24.433Z,7.40
2023-05-02T13:03:54.043Z,4.57
2023-05-02T13:06:22.317Z,6.60
2023-05-02T13:08:50.566Z,6.60
2023-05-02T13:11:21.781Z,6.53
2023-05-02T13:13:50.013Z,11.30
2023-05-02T13:16:18.488Z,8.03
2023-05-02T13:18:48.145Z,7.20
2023-05-02T13:21:20.243Z,7.10
2023-05-02T13:23:50.473Z,10.87
2023-05-02T13:26:18.671Z,6.70
2023-05-02T13:28:46.828Z,7.50
2023-05-02T13:31:15.250Z,9.20
2023-05-02T13:33:43.504Z,8.37
2023-05-02T13:36:18.839Z,8.53
2023-05-02T13:38:47.649Z,11.13
2023-05-02T13:41:15.776Z,5.53
2023-05-02T13:43:43.929Z,8.93
2023-05-02T13:46:13.335Z,15.63
2023-05-02T13:48:47.005Z,6.77
2023-05-02T13:51:15.184Z,9.70
2023-05-02T13:53:44.706Z,7.30
2023-05-02T13:56:12.959Z,6.37
2023-05-02T13:58:41.239Z,6.30
2023-05-02T14:01:09.770Z,10.30
2023-05-02T14:03:38.255Z,6.10
2023-05-02T14:06:06.733Z,8.97
2023-05-02T14:08:34.985Z,10.20
2023-05-02T14:11:09.412Z,11.53
2023-05-02T14:13:40.316Z,9.40
2023-05-02T14:16:09.035Z,6.27
2023-05-02T14:18:37.417Z,9.27
2023-05-02T14:21:06.357Z,9.50
2023-05-02T14:23:35.327Z,10.80
2023-05-02T14:26:12.669Z,10.67
2023-05-02T14:28:41.295Z,10.17
2023-05-02T14:31:09.743Z,14.13
2023-05-02T14:33:37.971Z,7.40
2023-05-02T14:36:06.816Z,8.97
2023-05-02T14:38:35.122Z,10.37
2023-05-02T14:41:05.962Z,11.70
2023-05-02T14:43:35.781Z,15.67
2023-05-02T14:46:04.213Z,9.73
2023-05-02T14:48:32.389Z,6.80
2023-05-02T14:51:04.106Z,6.33
2023-05-02T14:53:32.502Z,10.17
2023-05-02T14:56:00.757Z,10.50
2023-05-02T14:58:30.244Z,9.50
2023-05-02T15:00:58.529Z,9.63
2023-05-02T15:03:26.803Z,9.23
2023-05-02T15:05:55.270Z,9.70
2023-05-02T15:08:23.548Z,11.10
2023-05-02T15:10:51.889Z,9.23
2023-05-02T15:13:20.283Z,9.03
2023-05-02T15:15:49.847Z,6.73
2023-05-02T15:18:18.027Z,7.97
2023-05-02T15:20:46.320Z,8.67
2023-05-02T15:23:14.808Z,11.03
2023-05-02T15:25:42.958Z,9.97
2023-05-02T15:28:11.277Z,11.50
2023-05-02T15:30:39.635Z,11.10
2023-05-02T15:33:09.326Z,12.30
2023-05-02T15:35:37.875Z,7.80
2023-05-02T15:38:07.009Z,7.43
2023-05-02T15:40:35.647Z,6.73
2023-05-02T15:43:03.828Z,7.60
2023-05-02T15:45:32.369Z,11.70
2023-05-02T15:48:01.104Z,9.13
2023-05-02T15:50:30.649Z,8.00
2023-05-02T15:52:58.868Z,12.10
2023-05-02T15:55:27.147Z,8.13
2023-05-02T15:57:55.459Z,15.67
2023-05-02T16:00:26.191Z,12.37
2023-05-02T16:02:55.585Z,9.60
2023-05-02T16:05:23.858Z,11.10
2023-05-02T16:07:54.052Z,11.03
2023-05-02T16:10:22.724Z,7.47
2023-05-02T16:12:50.995Z,8.30
2023-05-02T16:15:19.190Z,10.00
2023-05-02T16:17:48.834Z,10.33
2023-05-02T16:20:17.814Z,10.90
2023-05-02T16:22:46.869Z,15.47
2023-05-02T16:25:18.678Z,10.90
2023-05-02T16:27:46.822Z,12.03
2023-05-02T16:30:17.511Z,16.40
2023-05-02T16:32:45.826Z,10.13
2023-05-02T16:35:15.963Z,8.43
2023-05-02T16:37:44.479Z,10.80
2023-05-02T16:40:13.632Z,23.53
2023-05-02T16:42:45.137Z,15.47
2023-05-02T16:45:13.386Z,11.23
2023-05-02T16:47:44.203Z,10.30
2023-05-02T16:50:12.726Z,8.93
2023-05-02T16:52:40.962Z,9.07
2023-05-02T16:55:09.931Z,11.70
2023-05-02T16:57:39.113Z,24.47
2023-05-02T17:00:14.825Z,11.03
2023-05-02T17:02:43.144Z,9.90
2023-05-02T17:05:12.281Z,11.47
2023-05-02T17:07:40.502Z,12.67
2023-05-02T17:10:11.219Z,8.87
2023-05-02T17:12:40.379Z,10.57
2023-05-02T17:15:11.393Z,7.43
2023-05-02T17:17:39.803Z,12.93
2023-05-02T17:20:10.063Z,8.40
2023-05-02T17:22:41.651Z,10.90
2023-05-02T17:25:11.183Z,10.83
2023-05-02T17:27:41.079Z,10.00
2023-05-02T17:30:15.200Z,11.67
2023-05-02T17:32:43.767Z,13.40
2023-05-02T17:35:14.854Z,13.47
2023-05-02T17:37:42.994Z,26.30
2023-05-02T17:40:12.689Z,7.57
2023-05-02T17:42:43.522Z,5.90
2023-05-02T17:45:17.967Z,8.70
2023-05-02T17:47:46.194Z,10.77
2023-05-02T17:50:14.398Z,13.20
2023-05-02T17:52:42.684Z,16.50
2023-05-02T17:55:13.973Z,10.90
2023-05-02T17:57:42.221Z,6.53
2023-05-02T18:00:12.127Z,8.83
2023-05-02T18:02:44.041Z,9.40
2023-05-02T18:05:12.832Z,9.17
2023-05-02T18:07:41.012Z,9.90
2023-05-02T18:10:10.160Z,11.53
2023-05-02T18:12:38.334Z,6.97
2023-05-02T18:15:09.414Z,10.80
2023-05-02T18:17:38.194Z,5.30
2023-05-02T18:20:10.221Z,8.03
2023-05-02T18:22:39.116Z,8.90
2023-05-02T18:25:08.593Z,8.10
2023-05-02T18:27:36.822Z,10.73
2023-05-02T18:30:09.868Z,5.10
2023-05-02T18:32:42.579Z,8.90
2023-05-02T18:35:12.761Z,4.93
2023-05-02T18:37:41.328Z,8.63
2023-05-02T18:40:13.379Z,7.50
2023-05-02T18:42:47.340Z,6.57
2023-05-02T18:45:20.459Z,10.33
2023-05-02T18:47:49.447Z,6.10
2023-05-02T18:50:23.384Z,5.97
2023-05-02T18:52:53.504Z,8.00
2023-05-02T18:55:25.444Z,11.00
2023-05-02T18:57:55.753Z,5.33
2023-05-02T19:00:25.876Z,7.90
2023-05-02T19:02:57.211Z,7.10
2023-05-02T19:05:28.726Z,8.20
2023-05-02T19:08:00.702Z,8.27
2023-05-02T19:10:31.013Z,4.10
2023-05-02T19:12:59.680Z,3.90
2023-05-02T19:15:28.094Z,6.23
2023-05-02T19:18:01.513Z,4.83
2023-05-02T19:20:33.463Z,3.77
2023-05-02T19:23:18.282Z,6.83
2023-05-02T19:25:50.513Z,3.70
2023-05-02T19:28:23.606Z,7.60
2023-05-02T19:30:57.688Z,7.80
2023-05-02T19:33:25.954Z,7.90
2023-05-02T19:35:58.530Z,5.33
2023-05-02T19:38:31.256Z,4.37
2023-05-02T19:41:02.844Z,4.40
2023-05-02T19:43:31.286Z,5.70
2023-05-02T19:45:59.871Z,6.90
2023-05-02T19:48:28.297Z,3.80
2023-05-02T19:50:57.895Z,6.20
2023-05-02T19:53:26.815Z,7.27
2023-05-02T19:55:54.925Z,7.40
2023-05-02T19:58:31.651Z,5.80
2023-05-02T20:01:01.164Z,4.40
2023-05-02T20:03:29.501Z,4.20
2023-05-02T20:05:59.099Z,4.83
2023-05-02T20:08:28.221Z,3.80
2023-05-02T20:10:57.903Z,6.03
2023-05-02T20:13:26.037Z,4.10
2023-05-02T20:15:55.187Z,4.00
2023-05-02T20:18:23.334Z,4.00
2023-05-02T20:20:51.531Z,7.80
2023-05-02T20:23:21.091Z,6.40
2023-05-02T20:25:49.284Z,4.50
2023-05-02T20:28:17.480Z,5.87
2023-05-02T20:30:45.682Z,4.27
2023-05-02T20:33:16.090Z,7.20
2023-05-02T20:35:45.076Z,5.47
2023-05-02T20:38:13.366Z,5.10
2023-05-02T20:40:43.629Z,9.03
2023-05-02T20:43:12.517Z,7.73
2023-05-02T20:45:40.762Z,8.07
2023-05-02T20:48:09.220Z,5.73
2023-05-02T20:50:40.664Z,6.20
2023-05-02T20:53:09.212Z,5.63
2023-05-02T20:55:37.471Z,9.23
2023-05-02T20:58:06.982Z,5.70
2023-05-02T21:00:35.534Z,6.90
2023-05-02T21:03:07.036Z,7.60
2023-05-02T21:05:35.249Z,4.20
2023-05-02T21:08:03.582Z,8.40
2023-05-02T21:10:31.902Z,5.73
2023-05-02T21:13:00.065Z,5.63
2023-05-02T21:15:30.079Z,7.20
2023-05-02T21:18:02.357Z,7.43
2023-05-02T21:20:30.660Z,7.60
2023-05-02T21:22:58.903Z,7.40
2023-05-02T21:25:27.494Z,6.87
2023-05-02T21:27:57.525Z,5.60
2023-05-02T21:30:25.795Z,9.53
2023-05-02T21:32:55.334Z,5.27
2023-05-02T21:35:23.516Z,5.23
2023-05-02T21:37:51.650Z,7.43
2023-05-02T21:40:22.563Z,6.20
2023-05-02T21:42:51.113Z,5.03
2023-05-02T21:45:19.384Z,5.03
2023-05-02T21:47:47.636Z,6.30
2023-05-02T21:50:17.161Z,3.90
2023-05-02T21:52:47.514Z,3.40
2023-05-02T21:55:17.936Z,3.97
2023-05-02T21:57:46.116Z,3.50
2023-05-02T22:00:17.303Z,3.67
2023-05-02T22:02:45.986Z,6.93
2023-05-02T22:05:17.999Z,5.13
2023-05-02T22:07:53.294Z,5.70
2023-05-02T22:10:22.064Z,4.30
2023-05-02T22:12:53.019Z,4.83
2023-05-02T22:15:21.169Z,5.70
2023-05-02T22:17:50.645Z,6.13
2023-05-02T22:20:20.213Z,8.67
2023-05-02T22:22:48.652Z,7.40
2023-05-02T22:25:16.807Z,6.80
2023-05-02T22:27:50.219Z,6.03
2023-05-02T22:30:18.519Z,8.17
2023-05-02T22:32:48.773Z,7.33
2023-05-02T22:35:18.054Z,5.37
2023-05-02T22:37:47.590Z,4.47
2023-05-02T22:40:16.508Z,4.80
2023-05-02T22:42:44.953Z,5.10
2023-05-02T22:45:13.816Z,7.00
2023-05-02T22:47:44.180Z,6.60
2023-05-02T22:50:16.018Z,13.27
2023-05-02T22:52:49.336Z,4.60
2023-05-02T22:55:18.000Z,7.53
2023-05-02T22:57:46.289Z,3.87
2023-05-02T23:00:15.338Z,4.57
2023-05-02T23:02:45.886Z,7.73
2023-05-02T23:05:14.247Z,4.20
2023-05-02T23:07:42.680Z,5.10
2023-05-02T23:10:15.312Z,4.57
2023-05-02T23:12:46.208Z,6.30
2023-05-02T23:15:14.452Z,5.07
2023-05-02T23:17:42.785Z,8.60
2023-05-02T23:20:19.415Z,5.73
2023-05-02T23:22:47.715Z,5.80
2023-05-02T23:25:17.227Z,7.10
2023-05-02T23:27:45.615Z,6.80
2023-05-02T23:30:14.254Z,8.30
2023-05-02T23:32:42.621Z,6.83
2023-05-02T23:35:12.813Z,7.80
2023-05-02T23:37:42.103Z,10.80
2023-05-02T23:40:11.345Z,10.60
2023-05-02T23:42:41.302Z,10.10
2023-05-02T23:45:11.072Z,10.40
2023-05-02T23:47:39.810Z,8.10
2023-05-02T23:50:11.869Z,9.67
2023-05-02T23:52:40.592Z,7.40
2023-05-02T23:55:11.450Z,6.70
2023-05-02T23:57:41.438Z,10.53
